Time;durP1;ratioP1;P1;durP2;ratioP2;P2;SDS_P1;SDS_P2;PMS_P1;PMS_P2;Temp;Humidity;BMP_temperature;BMP_pressure;BME280_temperature;BME280_humidity;BME280_pressure;Samples;Min_cycle;Max_cycle;Signal;HPM_P1;HPM_P2
2024/01/01 00:00:28;;;;;;;;;;;;;;;8.22;93.71;99577.81;6274995;28;20333;-84
2024/01/01 00:03:29;;;;;;;;;;;;;;;8.27;93.88;99582.75;6289431;28;19979;-84
2024/01/01 00:06:29;;;;;;;;;;;;;;;8.33;93.27;99571.16;6255094;28;19924;-87
2024/01/01 00:09:30;;;;;;;;;;;;;;;8.16;93.63;99567.78;6270889;28;20300;-85
2024/01/01 00:12:33;;;;;;;;;;;;;;;8.21;93.09;99567.50;6275860;28;19925;-84
2024/01/01 00:15:36;;;;;;;;;;;;;;;8.27;93.51;99567.13;6280644;28;20045;-85
2024/01/01 00:18:37;;;;;;;;;;;;;;;8.22;91.66;99577.81;6257208;28;20423;-81
2024/01/01 00:21:37;;;;;;;;;;;;;;;8.21;91.79;99583.91;6282934;28;20133;-86
2024/01/01 00:24:41;;;;;;;;;;;;;;;8.35;91.91;99585.72;6265061;28;19943;-85
2024/01/01 00:27:41;;;;;;;;;;;;;;;8.32;91.87;99591.13;6256295;28;19986;-86
2024/01/01 00:30:42;;;;;;;;;;;;;;;8.29;92.57;99591.28;6254587;28;19921;-84
2024/01/01 00:33:43;;;;;;;;;;;;;;;8.28;93.23;99576.63;6265440;28;20003;-85
2024/01/01 00:36:43;;;;;;;;;;;;;;;8.34;93.81;99570.19;6260495;28;20403;-83
2024/01/01 00:39:47;;;;;;;;;;;;;;;8.25;94.00;99558.59;6293683;28;19920;-85
2024/01/01 00:42:47;;;;;;;;;;;;;;;8.12;94.10;99565.47;6293259;28;20384;-84
2024/01/01 00:45:48;;;;;;;;;;;;;;;8.21;94.20;99560.53;6271345;28;19926;-85
2024/01/01 00:48:50;;;;;;;;;;;;;;;8.13;93.90;99560.16;6289491;28;19924;-84
2024/01/01 00:51:51;;;;;;;;;;;;;;;8.04;94.55;99563.31;6274790;28;19966;-85
2024/01/01 00:54:54;;;;;;;;;;;;;;;8.19;95.09;99559.78;6274456;28;20278;-84
2024/01/01 00:57:55;;;;;;;;;;;;;;;8.05;95.76;99554.56;6281660;28;20376;-84
2024/01/01 01:00:56;;;;;;;;;;;;;;;8.09;95.06;99553.47;6257419;28;19947;-85
2024/01/01 01:03:57;;;;;;;;;;;;;;;8.16;94.73;99551.34;6255943;28;19966;-83
2024/01/01 01:07:01;;;;;;;;;;;;;;;8.12;94.19;99548.09;6255550;28;20019;-84
2024/01/01 01:10:04;;;;;;;;;;;;;;;7.98;94.76;99548.06;6267666;28;20039;-83
2024/01/01 01:13:08;;;;;;;;;;;;;;;8.13;93.87;99543.72;6259464;28;19934;-86
2024/01/01 01:16:08;;;;;;;;;;;;;;;8.11;94.13;99535.19;6261757;28;19935;-85
2024/01/01 01:19:12;;;;;;;;;;;;;;;8.11;93.76;99530.81;6255985;28;19920;-84
2024/01/01 01:22:12;;;;;;;;;;;;;;;8.01;93.89;99524.50;6267154;28;20494;-84
2024/01/01 01:25:13;;;;;;;;;;;;;;;8.08;94.30;99518.84;6268511;28;20015;-84
2024/01/01 01:28:21;;;;;;;;;;;;;;;8.03;94.76;99520.91;6268026;28;19921;-84
2024/01/01 01:31:23;;;;;;;;;;;;;;;8.03;94.44;99517.44;6283455;28;19925;-84
2024/01/01 01:34:23;;;;;;;;;;;;;;;8.16;94.25;99512.38;6268815;28;19947;-85
2024/01/01 01:37:24;;;;;;;;;;;;;;;8.02;93.96;99510.59;6293248;28;19921;-84
2024/01/01 01:40:25;;;;;;;;;;;;;;;8.05;95.12;99506.06;6259724;28;19928;-84
2024/01/01 01:43:26;;;;;;;;;;;;;;;8.00;95.86;99502.88;6267095;28;20023;-83
2024/01/01 01:46:28;;;;;;;;;;;;;;;7.98;95.71;99499.53;6271204;28;19927;-82
2024/01/01 01:49:28;;;;;;;;;;;;;;;8.00;97.09;99502.88;6272378;28;20396;-84
2024/01/01 01:52:30;;;;;;;;;;;;;;;8.00;97.66;99502.06;6279232;28;19920;-84
2024/01/01 01:55:30;;;;;;;;;;;;;;;8.00;97.45;99497.69;6274237;28;19925;-84
2024/01/01 01:58:31;;;;;;;;;;;;;;;8.01;97.69;99501.09;6280112;28;19931;-84
2024/01/01 02:01:32;;;;;;;;;;;;;;;8.04;97.51;99496.56;6255290;28;19924;-85
2024/01/01 02:04:33;;;;;;;;;;;;;;;8.02;98.67;99492.41;6252619;28;19943;-83
2024/01/01 02:07:34;;;;;;;;;;;;;;;8.02;98.21;99485.44;6255162;28;20381;-83
2024/01/01 02:10:35;;;;;;;;;;;;;;;8.02;98.99;99479.41;6261906;28;19921;-82
2024/01/01 02:13:36;;;;;;;;;;;;;;;7.93;99.47;99478.19;6287107;28;20402;-82
2024/01/01 02:16:38;;;;;;;;;;;;;;;7.96;98.71;99477.19;6272916;28;19956;-83
2024/01/01 02:19:39;;;;;;;;;;;;;;;8.08;99.63;99489.44;6288699;28;20369;-82
2024/01/01 02:22:40;;;;;;;;;;;;;;;8.01;98.59;99493.31;6255829;28;19927;-85
2024/01/01 02:25:41;;;;;;;;;;;;;;;7.97;98.39;99492.69;6290272;28;20133;-86
2024/01/01 02:28:42;;;;;;;;;;;;;;;7.99;97.81;99485.63;6256265;28;20259;-87
2024/01/01 02:31:46;;;;;;;;;;;;;;;8.03;97.94;99484.53;6248102;28;19921;-83
2024/01/01 02:34:50;;;;;;;;;;;;;;;8.03;97.41;99479.31;6288734;28;19921;-83
2024/01/01 02:37:51;;;;;;;;;;;;;;;8.03;97.18;99481.94;6257803;28;20459;-84
2024/01/01 02:40:51;;;;;;;;;;;;;;;8.00;97.21;99478.66;6245252;28;19932;-83
2024/01/01 02:43:52;;;;;;;;;;;;;;;8.02;97.03;99482.00;6248169;28;19925;-84
2024/01/01 02:46:53;;;;;;;;;;;;;;;8.11;96.77;99491.84;6260799;28;19927;-84
2024/01/01 02:49:56;;;;;;;;;;;;;;;8.08;96.96;99498.06;6247576;28;19928;-85
2024/01/01 02:52:57;;;;;;;;;;;;;;;8.10;97.29;99489.34;6246138;28;19921;-85
2024/01/01 02:55:58;;;;;;;;;;;;;;;8.01;98.42;99490.72;6246300;28;19928;-85
2024/01/01 02:58:58;;;;;;;;;;;;;;;8.08;99.99;99482.47;6247508;28;19925;-85
2024/01/01 03:02:00;;;;;;;;;;;;;;;8.08;100.00;99482.47;6250943;28;20039;-85
2024/01/01 03:05:00;;;;;;;;;;;;;;;8.00;100.00;99482.09;6245327;28;20072;-84
2024/01/01 03:08:01;;;;;;;;;;;;;;;8.00;100.00;99478.66;6245273;28;20448;-84
2024/01/01 03:11:02;;;;;;;;;;;;;;;7.93;100.00;99464.34;6257052;28;19925;-85
2024/01/01 03:14:03;;;;;;;;;;;;;;;7.98;100.00;99462.34;6248760;28;19983;-83
2024/01/01 03:17:03;;;;;;;;;;;;;;;7.81;100.00;99463.34;6246147;28;20265;-80
2024/01/01 03:20:05;;;;;;;;;;;;;;;7.84;100.00;99464.00;6246042;28;20399;-82
2024/01/01 03:23:06;;;;;;;;;;;;;;;7.80;100.00;99459.06;6244517;28;19928;-81
2024/01/01 03:26:07;;;;;;;;;;;;;;;7.82;100.00;99455.47;6253491;28;20308;-81
2024/01/01 03:29:08;;;;;;;;;;;;;;;7.79;100.00;99453.03;6285198;28;19921;-81
2024/01/01 03:32:09;;;;;;;;;;;;;;;7.74;100.00;99454.22;6253052;28;19920;-81
2024/01/01 03:35:09;;;;;;;;;;;;;;;7.78;100.00;99447.91;6270067;28;19932;-80
2024/01/01 03:38:10;;;;;;;;;;;;;;;7.89;100.00;99442.94;6252193;28;19981;-81
2024/01/01 03:41:11;;;;;;;;;;;;;;;7.78;100.00;99445.31;6285287;28;19955;-81
2024/01/01 03:44:13;;;;;;;;;;;;;;;7.66;100.00;99437.34;6255644;28;19924;-83
2024/01/01 03:47:14;;;;;;;;;;;;;;;7.62;100.00;99435.03;6284165;28;19940;-83
2024/01/01 03:50:16;;;;;;;;;;;;;;;7.66;100.00;99426.97;6272197;28;19920;-83
2024/01/01 03:53:17;;;;;;;;;;;;;;;7.71;100.00;99421.50;6285739;28;19943;-83
2024/01/01 03:56:20;;;;;;;;;;;;;;;7.71;100.00;99410.28;6259025;28;20471;-83
2024/01/01 03:59:21;;;;;;;;;;;;;;;7.61;100.00;99413.41;6269047;28;19921;-83
2024/01/01 04:02:21;;;;;;;;;;;;;;;7.67;100.00;99405.25;6255138;28;19921;-81
2024/01/01 04:05:22;;;;;;;;;;;;;;;7.73;100.00;99411.00;6272009;28;20277;-83
2024/01/01 04:08:23;;;;;;;;;;;;;;;7.73;100.00;99404.06;6269820;28;19920;-83
2024/01/01 04:11:24;;;;;;;;;;;;;;;7.59;100.00;99397.06;6269474;28;19928;-83
2024/01/01 04:14:25;;;;;;;;;;;;;;;7.70;100.00;99390.41;6253982;28;20019;-81
2024/01/01 04:17:26;;;;;;;;;;;;;;;7.73;100.00;99385.06;6270713;28;19975;-84
2024/01/01 04:20:26;;;;;;;;;;;;;;;7.67;100.00;99397.47;6274513;28;19963;-84
2024/01/01 04:23:27;;;;;;;;;;;;;;;7.69;100.00;99391.34;6285850;28;19924;-85
2024/01/01 04:26:28;;;;;;;;;;;;;;;7.76;100.00;99388.31;6277727;28;19921;-81
2024/01/01 04:29:28;;;;;;;;;;;;;;;7.69;100.00;99397.38;6259269;28;19935;-80
2024/01/01 04:32:29;;;;;;;;;;;;;;;7.79;100.00;99393.31;6279546;28;19934;-81
2024/01/01 04:35:32;;;;;;;;;;;;;;;7.83;100.00;99391.38;6270651;28;20340;-80
2024/01/01 04:38:35;;;;;;;;;;;;;;;7.77;100.00;99395.16;6276856;28;20455;-84
2024/01/01 04:41:36;;;;;;;;;;;;;;;7.59;100.00;99388.47;6285062;28;19927;-82
2024/01/01 04:44:37;;;;;;;;;;;;;;;7.76;100.00;99392.63;6277830;28;19982;-81
2024/01/01 04:47:37;;;;;;;;;;;;;;;7.61;100.00;99400.41;6254608;28;19964;-81
2024/01/01 04:50:38;;;;;;;;;;;;;;;7.56;100.00;99404.22;6275104;28;20038;-81
2024/01/01 04:53:39;;;;;;;;;;;;;;;7.64;100.00;99408.03;6279021;28;19974;-80
2024/01/01 04:56:43;;;;;;;;;;;;;;;7.70;100.00;99425.03;6249952;28;20012;-81
2024/01/01 04:59:44;;;;;;;;;;;;;;;7.66;100.00;99416.56;6253775;28;19924;-80
2024/01/01 05:02:45;;;;;;;;;;;;;;;7.66;100.00;99407.97;6262507;28;20083;-80
2024/01/01 05:05:46;;;;;;;;;;;;;;;7.61;100.00;99400.41;6273662;28;19927;-79
2024/01/01 05:08:47;;;;;;;;;;;;;;;7.56;100.00;99409.44;6256342;28;20172;-79
2024/01/01 05:11:48;;;;;;;;;;;;;;;7.56;100.00;99409.44;6254199;28;19921;-82
2024/01/01 05:14:48;;;;;;;;;;;;;;;7.46;100.00;99407.34;6251139;28;20316;-81
2024/01/01 05:17:49;;;;;;;;;;;;;;;7.52;100.00;99410.53;6251777;28;20300;-81
2024/01/01 05:20:50;;;;;;;;;;;;;;;7.51;100.00;99399.28;6266469;28;19932;-82
2024/01/01 05:23:50;;;;;;;;;;;;;;;7.50;100.00;99391.63;6254215;28;20015;-81
2024/01/01 05:26:51;;;;;;;;;;;;;;;7.39;100.00;99387.03;6273041;28;20039;-83
2024/01/01 05:29:55;;;;;;;;;;;;;;;7.32;100.00;99396.09;6274480;28;19921;-79
2024/01/01 05:32:56;;;;;;;;;;;;;;;7.39;100.00;99398.25;6275036;28;19920;-79
2024/01/01 05:35:57;;;;;;;;;;;;;;;7.51;100.00;99396.69;6254732;28;19943;-79
2024/01/01 05:38:58;;;;;;;;;;;;;;;7.47;100.00;99388.28;6288879;28;20377;-79
2024/01/01 05:41:59;;;;;;;;;;;;;;;7.40;100.00;99379.16;6265313;28;19927;-79
2024/01/01 05:45:00;;;;;;;;;;;;;;;7.30;100.00;99362.44;6287370;28;19927;-79
2024/01/01 05:48:01;;;;;;;;;;;;;;;7.40;100.00;99366.19;6259763;28;19921;-79
2024/01/01 05:51:01;;;;;;;;;;;;;;;7.41;100.00;99365.28;6263443;28;19978;-79
2024/01/01 05:54:02;;;;;;;;;;;;;;;7.31;100.00;99355.50;6274980;28;20343;-81
2024/01/01 05:57:03;;;;;;;;;;;;;;;7.40;100.00;99360.16;6277164;28;20384;-82
2024/01/01 06:00:04;;;;;;;;;;;;;;;7.26;100.00;99361.78;6280719;28;19927;-81
2024/01/01 06:03:05;;;;;;;;;;;;;;;7.30;100.00;99361.63;6254855;28;20449;-81
2024/01/01 06:06:09;;;;;;;;;;;;;;;7.30;100.00;99364.22;6255450;28;19924;-82
2024/01/01 06:09:11;;;;;;;;;;;;;;;7.34;100.00;99369.13;6274087;28;19931;-82
2024/01/01 06:12:12;;;;;;;;;;;;;;;7.37;100.00;99363.78;6282805;28;19925;-81
2024/01/01 06:15:13;;;;;;;;;;;;;;;7.38;100.00;99370.63;6271108;28;20363;-79
2024/01/01 06:18:14;;;;;;;;;;;;;;;7.30;100.00;99359.84;6270370;28;20224;-81
2024/01/01 06:21:14;;;;;;;;;;;;;;;7.39;100.00;99371.44;6279654;28;19928;-82
2024/01/01 06:24:15;;;;;;;;;;;;;;;7.56;100.00;99365.28;6256521;28;19921;-79
2024/01/01 06:27:16;;;;;;;;;;;;;;;7.58;100.00;99368.63;6247366;28;19921;-80
2024/01/01 06:30:17;;;;;;;;;;;;;;;7.57;100.00;99377.31;6246779;28;19948;-80
2024/01/01 06:33:20;;;;;;;;;;;;;;;7.61;100.00;99371.03;6245643;28;19921;-80
2024/01/01 06:36:21;;;;;;;;;;;;;;;7.65;100.00;99365.56;6254042;28;19952;-81
2024/01/01 06:39:22;;;;;;;;;;;;;;;7.55;100.00;99361.00;6252667;28;19955;-82
2024/01/01 06:42:22;;;;;;;;;;;;;;;7.55;100.00;99353.22;6247920;28;19929;-82
2024/01/01 06:45:23;;;;;;;;;;;;;;;7.51;100.00;99342.19;6247124;28;20020;-81
2024/01/01 06:48:24;;;;;;;;;;;;;;;7.45;100.00;99346.00;6260757;28;20004;-79
2024/01/01 06:51:25;;;;;;;;;;;;;;;7.54;100.00;99356.75;6278056;28;20186;-79
2024/01/01 06:54:26;;;;;;;;;;;;;;;7.41;100.00;99373.06;6246513;28;19925;-79
2024/01/01 06:57:26;;;;;;;;;;;;;;;7.34;100.00;99370.91;6257734;28;20006;-80
2024/01/01 07:00:27;;;;;;;;;;;;;;;7.45;100.00;99363.31;6270596;28;20390;-79
2024/01/01 07:03:29;;;;;;;;;;;;;;;7.61;100.00;99355.44;6252251;28;19928;-82
2024/01/01 07:06:30;;;;;;;;;;;;;;;7.55;100.00;99364.44;6257274;28;19921;-82
2024/01/01 07:09:31;;;;;;;;;;;;;;;7.43;100.00;99354.78;6258886;28;20258;-79
2024/01/01 07:12:31;;;;;;;;;;;;;;;7.50;100.00;99365.66;6290344;28;19925;-80
2024/01/01 07:15:32;;;;;;;;;;;;;;;7.61;100.00;99337.28;6260065;28;19971;-79
2024/01/01 07:18:33;;;;;;;;;;;;;;;7.63;100.00;99328.47;6290802;28;19925;-81
2024/01/01 07:21:33;;;;;;;;;;;;;;;7.64;100.00;99319.75;6294157;28;19924;-81
2024/01/01 07:24:34;;;;;;;;;;;;;;;7.49;100.00;99312.06;6245604;28;19976;-82
2024/01/01 07:27:35;;;;;;;;;;;;;;;7.65;100.00;99311.03;6258780;28;19927;-79
2024/01/01 07:30:36;;;;;;;;;;;;;;;7.49;100.00;99297.31;6271288;28;20074;-80
2024/01/01 07:33:38;;;;;;;;;;;;;;;7.63;100.00;99299.06;6253726;28;19970;-79
2024/01/01 07:36:41;;;;;;;;;;;;;;;7.53;100.00;99284.97;6271174;28;19995;-79
2024/01/01 07:39:42;;;;;;;;;;;;;;;7.58;100.00;99278.59;6286433;28;19944;-82
2024/01/01 07:42:43;;;;;;;;;;;;;;;7.66;100.00;99278.13;6252772;28;19960;-82
2024/01/01 07:45:44;;;;;;;;;;;;;;;7.64;100.00;99275.63;6253078;28;20030;-82
2024/01/01 07:48:45;;;;;;;;;;;;;;;7.73;100.00;99270.78;6259655;28;19920;-83
2024/01/01 07:51:46;;;;;;;;;;;;;;;7.64;100.00;99274.78;6295658;28;19920;-83
2024/01/01 07:54:47;;;;;;;;;;;;;;;7.74;100.00;99288.03;6261662;28;19920;-82
2024/01/01 07:57:48;;;;;;;;;;;;;;;7.78;100.00;99282.56;6290396;28;19933;-82
2024/01/01 08:00:48;;;;;;;;;;;;;;;7.84;100.00;99278.75;6302857;28;19920;-82
2024/01/01 08:03:49;;;;;;;;;;;;;;;7.92;100.00;99292.09;6267139;28;20559;-81
2024/01/01 08:06:50;;;;;;;;;;;;;;;7.94;100.00;99287.63;6274074;28;19962;-81
2024/01/01 08:09:51;;;;;;;;;;;;;;;7.95;100.00;99294.50;6276317;28;19920;-78
2024/01/01 08:12:51;;;;;;;;;;;;;;;7.90;100.00;99293.13;6295134;28;19927;-78
2024/01/01 08:15:52;;;;;;;;;;;;;;;7.95;100.00;99307.50;6270379;28;19921;-81
2024/01/01 08:18:53;;;;;;;;;;;;;;;7.99;100.00;99289.94;6264039;28;19920;-77
2024/01/01 08:21:54;;;;;;;;;;;;;;;7.94;100.00;99284.19;6266649;28;19975;-78
2024/01/01 08:24:54;;;;;;;;;;;;;;;7.94;100.00;99279.84;6274411;28;20364;-78
2024/01/01 08:27:55;;;;;;;;;;;;;;;7.99;100.00;99290.78;6275438;28;19920;-80
2024/01/01 08:30:56;;;;;;;;;;;;;;;7.95;100.00;99302.28;6265474;28;19928;-80
2024/01/01 08:33:57;;;;;;;;;;;;;;;7.91;100.00;99287.84;6283990;28;19921;-78
2024/01/01 08:37:01;;;;;;;;;;;;;;;7.98;100.00;99288.28;6260569;28;19921;-79
2024/01/01 08:40:02;;;;;;;;;;;;;;;7.96;100.00;99296.16;6281509;28;19960;-78
2024/01/01 08:43:03;;;;;;;;;;;;;;;7.90;100.00;99301.72;6280147;28;19932;-78
2024/01/01 08:46:04;;;;;;;;;;;;;;;7.97;100.00;99296.97;6284989;28;20395;-78
2024/01/01 08:49:05;;;;;;;;;;;;;;;7.90;100.00;99303.50;6281409;28;19920;-78
2024/01/01 08:52:06;;;;;;;;;;;;;;;7.83;100.00;99303.88;6286796;28;19928;-78
2024/01/01 08:55:07;;;;;;;;;;;;;;;7.90;100.00;99299.13;6272427;28;19920;-78
2024/01/01 08:58:07;;;;;;;;;;;;;;;7.87;100.00;99301.94;6278066;28;20339;-79
2024/01/01 09:01:08;;;;;;;;;;;;;;;7.88;100.00;99308.78;6293025;28;19924;-77
2024/01/01 09:04:09;;;;;;;;;;;;;;;7.86;100.00;99302.84;6294429;28;19928;-77
2024/01/01 09:07:10;;;;;;;;;;;;;;;7.90;100.00;99295.72;6292966;28;19921;-80
2024/01/01 09:10:11;;;;;;;;;;;;;;;7.94;100.00;99287.63;6294066;28;20437;-81
2024/01/01 09:13:12;;;;;;;;;;;;;;;7.94;100.00;99289.41;6258624;28;20373;-78
2024/01/01 09:16:12;;;;;;;;;;;;;;;7.85;100.00;99298.59;6264929;28;19921;-78
2024/01/01 09:19:17;;;;;;;;;;;;;;;7.72;100.00;99285.53;6269142;28;19920;-78
2024/01/01 09:22:18;;;;;;;;;;;;;;;7.78;100.00;99287.75;6263024;28;20365;-77
2024/01/01 09:25:19;;;;;;;;;;;;;;;7.70;100.00;99270.97;6251343;28;19920;-81
2024/01/01 09:28:19;;;;;;;;;;;;;;;7.53;100.00;99246.88;6269336;28;20030;-81
2024/01/01 09:31:20;;;;;;;;;;;;;;;7.54;100.00;99220.00;6255830;28;19924;-81
2024/01/01 09:34:21;;;;;;;;;;;;;;;7.70;100.00;99199.13;6254987;28;19920;-80
2024/01/01 09:37:22;;;;;;;;;;;;;;;7.59;100.00;99194.56;6269334;28;19970;-78
2024/01/01 09:40:22;;;;;;;;;;;;;;;7.58;100.00;99184.31;6256981;28;19937;-77
2024/01/01 09:43:23;;;;;;;;;;;;;;;7.72;100.00;99188.59;6255554;28;19928;-82
2024/01/01 09:46:26;;;;;;;;;;;;;;;7.65;100.00;99189.00;6254816;28;19931;-83
2024/01/01 09:49:27;;;;;;;;;;;;;;;7.85;100.00;99192.94;6256364;28;19924;-78
2024/01/01 09:52:28;;;;;;;;;;;;;;;7.88;100.00;99187.53;6254031;28;20031;-78
2024/01/01 09:55:30;;;;;;;;;;;;;;;7.88;100.00;99191.91;6269000;28;19932;-83
2024/01/01 09:58:43;;;;;;;;;;;;;;;7.90;100.00;99218.63;6270611;28;19920;-76
2024/01/01 10:02:00;;;;;;;;;;;;;;;7.88;100.00;99208.31;6269570;28;19979;-76
2024/01/01 10:05:17;;;;;;;;;;;;;;;7.81;100.00;99248.59;6277116;28;20423;-82
2024/01/01 10:08:17;;;;;;;;;;;;;;;7.94;100.00;99255.63;6280555;28;19920;-83
2024/01/01 10:11:20;;;;;;;;;;;;;;;7.90;100.00;99264.53;6297961;28;19924;-77
2024/01/01 10:14:21;;;;;;;;;;;;;;;7.81;100.00;99271.16;6296806;28;20326;-82
2024/01/01 10:17:21;;;;;;;;;;;;;;;7.63;100.00;99276.53;6298110;28;19920;-82
2024/01/01 10:20:24;;;;;;;;;;;;;;;7.55;100.00;99278.75;6298056;28;20331;-77
2024/01/01 10:23:26;;;;;;;;;;;;;;;7.59;100.00;99267.25;6297908;28;19920;-81
2024/01/01 10:26:27;;;;;;;;;;;;;;;7.55;100.00;99251.97;6297561;28;19935;-83
2024/01/01 10:29:28;;;;;;;;;;;;;;;7.69;100.00;99241.56;6287066;28;20324;-84
2024/01/01 10:32:29;;;;;;;;;;;;;;;7.52;100.00;99242.63;6280117;28;19974;-82
2024/01/01 10:35:31;;;;;;;;;;;;;;;7.45;100.00;99239.56;6291516;28;19927;-86
2024/01/01 10:38:33;;;;;;;;;;;;;;;7.39;100.00;99234.75;6293111;28;19924;-83
2024/01/01 10:41:37;;;;;;;;;;;;;;;7.52;100.00;99228.81;6267021;28;19920;-85
2024/01/01 10:44:39;;;;;;;;;;;;;;;7.46;100.00;99230.00;6283921;28;19930;-84
2024/01/01 10:47:41;;;;;;;;;;;;;;;7.45;100.00;99217.94;6275379;28;19929;-85
2024/01/01 10:50:49;;;;;;;;;;;;;;;7.37;100.00;99205.47;6297127;28;19946;-83
2024/01/01 10:54:09;;;;;;;;;;;;;;;7.51;100.00;99194.22;6297099;28;20021;-86
2024/01/01 10:57:29;;;;;;;;;;;;;;;7.41;100.00;99196.56;6296900;28;19920;-77
2024/01/01 11:00:36;;;;;;;;;;;;;;;7.51;100.00;99193.38;6276541;28;19924;-76
2024/01/01 11:03:37;;;;;;;;;;;;;;;7.31;100.00;99203.25;6271855;28;20030;-82
2024/01/01 11:06:44;;;;;;;;;;;;;;;7.35;100.00;99209.06;6290279;28;20218;-77
2024/01/01 11:09:49;;;;;;;;;;;;;;;7.25;100.00;99209.63;6277021;28;20372;-77
2024/01/01 11:12:49;;;;;;;;;;;;;;;7.15;100.00;99218.06;6284113;28;19927;-82
2024/01/01 11:15:50;;;;;;;;;;;;;;;7.10;100.00;99214.91;6290108;28;20105;-77
2024/01/01 11:18:52;;;;;;;;;;;;;;;7.38;100.00;99208.88;6296361;28;20071;-84
2024/01/01 11:21:52;;;;;;;;;;;;;;;7.13;100.00;99231.13;6278186;28;20003;-85
2024/01/01 11:24:53;;;;;;;;;;;;;;;6.97;100.00;99213.03;6284162;28;19927;-82
2024/01/01 11:27:54;;;;;;;;;;;;;;;7.15;100.00;99233.63;6282018;28;19998;-84
2024/01/01 11:30:56;;;;;;;;;;;;;;;7.18;100.00;99228.25;6294903;28;19928;-84
2024/01/01 11:34:07;;;;;;;;;;;;;;;7.28;100.00;99221.59;6296480;28;19920;-83
2024/01/01 11:37:07;;;;;;;;;;;;;;;7.14;100.00;99237.16;6278255;28;20010;-84
2024/01/01 11:40:09;;;;;;;;;;;;;;;6.99;100.00;99246.69;6295927;28;19965;-83
2024/01/01 11:43:10;;;;;;;;;;;;;;;7.17;100.00;99213.63;6295790;28;20003;-83
2024/01/01 11:46:21;;;;;;;;;;;;;;;7.03;100.00;99242.97;6278172;28;20292;-85
2024/01/01 11:49:21;;;;;;;;;;;;;;;7.07;100.00;99223.72;6295510;28;19920;-77
2024/01/01 11:52:22;;;;;;;;;;;;;;;7.02;100.00;99226.59;6295464;28;19920;-76
2024/01/01 11:55:25;;;;;;;;;;;;;;;6.84;100.00;99251.84;6268055;28;19927;-84
2024/01/01 11:58:26;;;;;;;;;;;;;;;6.51;100.00;99244.25;6266574;28;19927;-76
2024/01/01 12:01:27;;;;;;;;;;;;;;;6.42;100.00;99234.41;6286288;28;19921;-83
2024/01/01 12:04:28;;;;;;;;;;;;;;;6.56;100.00;99238.81;6252746;28;19921;-76
2024/01/01 12:07:30;;;;;;;;;;;;;;;6.75;100.00;99225.59;6270663;28;20384;-82
2024/01/01 12:10:33;;;;;;;;;;;;;;;6.74;100.00;99229.13;6282017;28;19943;-83
2024/01/01 12:13:33;;;;;;;;;;;;;;;6.64;100.00;99229.66;6295465;28;19978;-76
2024/01/01 12:16:35;;;;;;;;;;;;;;;6.60;100.00;99215.19;6276785;28;19920;-77
2024/01/01 12:19:36;;;;;;;;;;;;;;;6.54;100.00;99225.91;6272294;28;19981;-83
2024/01/01 12:22:37;;;;;;;;;;;;;;;6.52;100.00;99229.53;6294794;28;19924;-83
2024/01/01 12:25:38;;;;;;;;;;;;;;;6.57;100.00;99236.13;6277304;28;19928;-83
2024/01/01 12:28:40;;;;;;;;;;;;;;;6.53;100.00;99236.41;6287886;28;20003;-83
2024/01/01 12:31:42;;;;;;;;;;;;;;;6.44;100.00;99233.41;6272401;28;20361;-77
2024/01/01 12:34:43;;;;;;;;;;;;;;;6.51;100.00;99246.84;6292221;28;19927;-83
2024/01/01 12:37:46;;;;;;;;;;;;;;;6.47;100.00;99247.13;6277042;28;19924;-77
2024/01/01 12:40:47;;;;;;;;;;;;;;;6.39;100.00;99243.19;6294709;28;20338;-76
2024/01/01 12:43:47;;;;;;;;;;;;;;;6.42;100.00;99237.00;6276585;28;19960;-77
2024/01/01 12:46:50;;;;;;;;;;;;;;;6.43;100.00;99246.44;6294388;28;19920;-77
2024/01/01 12:49:50;;;;;;;;;;;;;;;6.51;100.00;99233.88;6294170;28;20013;-77
2024/01/01 12:52:51;;;;;;;;;;;;;;;6.43;100.00;99231.72;6282478;28;20022;-77
2024/01/01 12:55:54;;;;;;;;;;;;;;;6.65;100.00;99222.69;6270325;28;19972;-83
2024/01/01 12:58:55;;;;;;;;;;;;;;;6.69;100.00;99233.72;6276713;28;19925;-77
2024/01/01 13:01:56;;;;;;;;;;;;;;;6.87;100.00;99224.88;6264098;28;19976;-78
2024/01/01 13:04:57;;;;;;;;;;;;;;;7.12;100.00;99232.03;6287282;28;19925;-84
2024/01/01 13:07:57;;;;;;;;;;;;;;;7.09;100.00;99242.63;6289208;28;19928;-76
2024/01/01 13:10:58;;;;;;;;;;;;;;;7.32;100.00;99249.00;6269290;28;19921;-82
2024/01/01 13:13:59;;;;;;;;;;;;;;;7.33;100.00;99245.50;6254212;28;19966;-83
2024/01/01 13:17:06;;;;;;;;;;;;;;;7.24;100.00;99252.06;6257715;28;19927;-76
2024/01/01 13:20:06;;;;;;;;;;;;;;;7.37;100.00;99261.69;6268070;28;19920;-82
2024/01/01 13:23:08;;;;;;;;;;;;;;;7.50;100.00;99252.25;6269289;28;19954;-77
2024/01/01 13:26:09;;;;;;;;;;;;;;;7.27;100.00;99253.66;6251265;28;20415;-83
2024/01/01 13:29:09;;;;;;;;;;;;;;;7.38;100.00;99253.84;6257781;28;19920;-82
2024/01/01 13:32:13;;;;;;;;;;;;;;;7.24;100.00;99269.41;6294179;28;19927;-77
2024/01/01 13:35:13;;;;;;;;;;;;;;;7.26;100.00;99264.94;6262385;28;19921;-82
2024/01/01 13:38:15;;;;;;;;;;;;;;;7.19;100.00;99258.47;6251353;28;19931;-83
2024/01/01 13:41:16;;;;;;;;;;;;;;;7.11;100.00;99264.09;6270913;28;19921;-82
2024/01/01 13:44:16;;;;;;;;;;;;;;;7.00;100.00;99261.31;6278527;28;20455;-77
2024/01/01 13:47:17;;;;;;;;;;;;;;;7.05;100.00;99288.66;6298425;28;19924;-76
2024/01/01 13:50:18;;;;;;;;;;;;;;;7.02;100.00;99304.41;6298392;28;19920;-82
2024/01/01 13:53:18;;;;;;;;;;;;;;;7.19;100.00;99298.22;6290204;28;19966;-83
2024/01/01 13:56:19;;;;;;;;;;;;;;;7.14;100.00;99300.22;6285934;28;20415;-82
2024/01/01 13:59:20;;;;;;;;;;;;;;;6.99;100.00;99308.94;6297910;28;20007;-77
2024/01/01 14:02:21;;;;;;;;;;;;;;;7.03;100.00;99315.59;6270031;28;20384;-77
2024/01/01 14:05:22;;;;;;;;;;;;;;;6.95;100.00;99325.59;6281530;28;19920;-82
2024/01/01 14:08:23;;;;;;;;;;;;;;;6.90;100.00;99322.41;6285266;28;19926;-77
2024/01/01 14:11:24;;;;;;;;;;;;;;;6.90;100.00;99322.41;6286011;28;19924;-76
2024/01/01 14:14:27;;;;;;;;;;;;;;;6.91;100.00;99332.69;6285878;28;19924;-76
2024/01/01 14:17:28;;;;;;;;;;;;;;;6.95;100.00;99338.56;6267758;28;19920;-83
2024/01/01 14:20:31;;;;;;;;;;;;;;;7.03;100.00;99341.53;6260023;28;19966;-82
2024/01/01 14:23:32;;;;;;;;;;;;;;;6.97;100.00;99350.50;6290641;28;19966;-77
2024/01/01 14:26:33;;;;;;;;;;;;;;;6.86;100.00;99350.28;6269082;28;19930;-76
2024/01/01 14:29:34;;;;;;;;;;;;;;;6.84;100.00;99360.75;6297571;28;20312;-76
2024/01/01 14:32:35;;;;;;;;;;;;;;;6.77;100.00;99359.41;6264739;28;19924;-82
2024/01/01 14:35:36;;;;;;;;;;;;;;;6.68;100.00;99372.06;6255008;28;19921;-82
2024/01/01 14:38:37;;;;;;;;;;;;;;;6.76;100.00;99375.06;6273055;28;19971;-82
2024/01/01 14:41:38;;;;;;;;;;;;;;;6.63;100.00;99370.56;6254721;28;19924;-82
2024/01/01 14:44:39;;;;;;;;;;;;;;;6.65;100.00;99380.84;6254449;28;19921;-76
2024/01/01 14:47:42;;;;;;;;;;;;;;;6.63;100.00;99391.31;6265708;28;19927;-77
2024/01/01 14:50:44;;;;;;;;;;;;;;;6.65;100.00;99402.44;6290157;28;19920;-81
2024/01/01 14:53:47;;;;;;;;;;;;;;;6.63;100.00;99400.81;6290322;28;19920;-77
2024/01/01 14:56:48;;;;;;;;;;;;;;;6.61;100.00;99410.44;6295850;28;19927;-77
2024/01/01 14:59:48;;;;;;;;;;;;;;;6.58;100.00;99406.25;6296074;28;19920;-77
2024/01/01 15:02:49;;;;;;;;;;;;;;;6.65;100.00;99414.53;6296953;28;19943;-77
2024/01/01 15:05:50;;;;;;;;;;;;;;;6.73;100.00;99424.50;6295829;28;20003;-76
2024/01/01 15:08:51;;;;;;;;;;;;;;;6.60;100.00;99421.75;6296692;28;20403;-77
2024/01/01 15:11:52;;;;;;;;;;;;;;;6.61;100.00;99431.19;6296908;28;19927;-77
2024/01/01 15:14:53;;;;;;;;;;;;;;;6.48;100.00;99428.44;6295568;28;19921;-77
2024/01/01 15:17:54;;;;;;;;;;;;;;;6.45;100.00;99434.63;6295271;28;19921;-77
2024/01/01 15:20:54;;;;;;;;;;;;;;;6.33;100.00;99434.44;6295437;28;19946;-77
2024/01/01 15:23:55;;;;;;;;;;;;;;;6.29;100.00;99443.28;6282722;28;19974;-78
2024/01/01 15:26:56;;;;;;;;;;;;;;;6.16;100.00;99450.88;6283978;28;19927;-82
2024/01/01 15:29:57;;;;;;;;;;;;;;;6.34;100.00;99452.50;6278246;28;20511;-81
2024/01/01 15:32:57;;;;;;;;;;;;;;;6.24;100.00;99466.88;6268546;28;19921;-78
2024/01/01 15:35:58;;;;;;;;;;;;;;;6.13;100.00;99477.75;6262528;28;20026;-77
2024/01/01 15:38:59;;;;;;;;;;;;;;;6.12;100.00;99494.22;6286912;28;19973;-78
2024/01/01 15:42:00;;;;;;;;;;;;;;;6.24;100.00;99505.72;6274697;28;19927;-77
2024/01/01 15:45:01;;;;;;;;;;;;;;;6.08;100.00;99508.25;6290338;28;19931;-76